createdAt,value
2023-05-14T00:00:53.786Z,14.40
2023-05-14T00:01:58.477Z,14.40
2023-05-14T00:03:02.581Z,14.40
2023-05-14T00:04:06.386Z,14.40
2023-05-14T00:05:11.478Z,14.40
2023-05-14T00:06:14.977Z,14.40
2023-05-14T00:07:19.040Z,14.40
2023-05-14T00:08:22.584Z,14.40
2023-05-14T00:09:26.548Z,14.40
2023-05-14T00:10:30.615Z,14.40
2023-05-14T00:11:35.456Z,14.40
2023-05-14T00:12:38.408Z,14.40
2023-05-14T00:13:43.463Z,14.40
2023-05-14T00:14:52.527Z,14.30
2023-05-14T00:15:56.287Z,14.30
2023-05-14T00:17:00.686Z,14.30
2023-05-14T00:18:04.531Z,14.30
2023-05-14T00:19:07.492Z,14.30
2023-05-14T00:20:13.269Z,14.30
2023-05-14T00:21:15.976Z,14.30
2023-05-14T00:22:19.879Z,14.30
2023-05-14T00:23:22.765Z,14.30
2023-05-14T00:24:26.654Z,14.30
2023-05-14T00:25:30.012Z,14.30
2023-05-14T00:26:33.776Z,14.30
2023-05-14T00:27:39.470Z,14.30
2023-05-14T00:28:43.730Z,14.30
2023-05-14T00:29:46.520Z,14.30
2023-05-14T00:30:50.388Z,14.30
2023-05-14T00:31:53.239Z,14.30
2023-05-14T00:32:58.660Z,14.30
2023-05-14T00:34:01.582Z,14.30
2023-05-14T00:35:06.713Z,14.30
2023-05-14T00:36:10.966Z,14.30
2023-05-14T00:37:13.930Z,14.30
2023-05-14T00:38:19.570Z,14.20
2023-05-14T00:39:22.584Z,14.20
2023-05-14T00:40:28.813Z,14.20
2023-05-14T00:41:31.589Z,14.20
2023-05-14T00:42:35.653Z,14.20
2023-05-14T00:43:38.377Z,14.20
2023-05-14T00:44:42.111Z,14.20
2023-05-14T00:45:46.162Z,14.20
2023-05-14T00:46:50.190Z,14.20
2023-05-14T00:47:53.785Z,14.20
2023-05-14T00:48:59.655Z,14.20
2023-05-14T00:50:03.008Z,14.20
2023-05-14T00:51:07.821Z,14.20
2023-05-14T00:52:11.795Z,14.20
2023-05-14T00:53:16.030Z,14.20
2023-05-14T00:54:20.056Z,14.20
2023-05-14T00:55:23.931Z,14.20
2023-05-14T00:56:28.132Z,14.10
2023-05-14T00:57:32.046Z,14.10
2023-05-14T00:58:34.969Z,14.10
2023-05-14T00:59:41.057Z,14.10
2023-05-14T01:00:43.971Z,14.10
2023-05-14T01:01:47.886Z,14.10
2023-05-14T01:02:50.659Z,14.10
2023-05-14T01:03:55.045Z,14.10
2023-05-14T01:06:14.822Z,14.00
2023-05-14T01:07:28.748Z,14.00
2023-05-14T01:08:47.574Z,14.00
2023-05-14T01:09:59.890Z,14.00
2023-05-14T01:11:09.500Z,14.00
2023-05-14T01:12:19.713Z,14.00
2023-05-14T01:13:30.531Z,14.00
2023-05-14T01:14:41.409Z,14.00
2023-05-14T01:15:48.819Z,14.00
2023-05-14T01:16:57.022Z,14.00
2023-05-14T01:18:05.664Z,13.90
2023-05-14T01:19:21.802Z,13.90
2023-05-14T01:20:28.354Z,13.90
2023-05-14T01:21:44.163Z,13.90
2023-05-14T01:22:47.982Z,13.90
2023-05-14T01:23:50.694Z,13.90
2023-05-14T01:24:54.249Z,13.90
2023-05-14T01:25:57.227Z,13.90
2023-05-14T01:27:08.500Z,13.90
2023-05-14T01:28:18.118Z,13.80
2023-05-14T01:29:25.428Z,13.90
2023-05-14T01:30:32.384Z,13.80
2023-05-14T01:31:40.317Z,13.80
2023-05-14T01:32:45.000Z,13.80
2023-05-14T01:33:50.908Z,13.80
2023-05-14T01:34:56.019Z,13.80
2023-05-14T01:35:59.989Z,13.80
2023-05-14T01:37:05.985Z,13.80
2023-05-14T01:38:13.701Z,13.80
2023-05-14T01:39:16.942Z,13.80
2023-05-14T01:40:21.506Z,13.80
2023-05-14T01:41:26.640Z,13.80
2023-05-14T01:42:30.909Z,13.80
2023-05-14T01:43:36.002Z,13.70
2023-05-14T01:44:40.605Z,13.70
2023-05-14T01:45:43.960Z,13.70
2023-05-14T01:46:47.600Z,13.70
2023-05-14T01:47:50.646Z,13.70
2023-05-14T01:48:54.395Z,13.70
2023-05-14T01:49:56.971Z,13.70
2023-05-14T01:51:00.544Z,13.70
2023-05-14T01:52:05.469Z,13.70
2023-05-14T01:53:09.371Z,13.70
2023-05-14T01:54:11.922Z,13.60
2023-05-14T01:55:16.406Z,13.60
2023-05-14T01:56:19.347Z,13.60
2023-05-14T01:57:23.193Z,13.60
2023-05-14T01:58:26.011Z,13.60
2023-05-14T01:59:30.667Z,13.60
2023-05-14T02:00:33.847Z,13.60
2023-05-14T02:01:37.777Z,13.60
2023-05-14T02:02:40.764Z,13.60
2023-05-14T02:03:45.853Z,13.60
2023-05-14T02:04:48.634Z,13.60
2023-05-14T02:06:55.321Z,13.60
2023-05-14T02:08:02.947Z,13.50
2023-05-14T02:09:05.982Z,13.50
2023-05-14T02:10:11.501Z,13.50
2023-05-14T02:11:14.480Z,13.50
2023-05-14T02:12:18.487Z,13.50
2023-05-14T02:13:21.281Z,13.50
2023-05-14T02:14:25.118Z,13.50
2023-05-14T02:15:28.022Z,13.50
2023-05-14T02:16:31.810Z,13.50
2023-05-14T02:17:34.788Z,13.50
2023-05-14T02:18:38.632Z,13.50
2023-05-14T02:19:41.305Z,13.50
2023-05-14T02:20:45.190Z,13.50
2023-05-14T02:21:48.726Z,13.50
2023-05-14T02:22:52.516Z,13.50
2023-05-14T02:23:56.730Z,13.50
2023-05-14T02:25:01.074Z,13.50
2023-05-14T02:26:04.394Z,13.50
2023-05-14T02:27:08.167Z,13.50
2023-05-14T02:28:10.884Z,13.40
2023-05-14T02:29:15.445Z,13.50
2023-05-14T02:30:18.377Z,13.50
2023-05-14T02:31:22.388Z,13.50
2023-05-14T02:32:25.872Z,13.50
2023-05-14T02:33:29.757Z,13.50
2023-05-14T02:34:34.520Z,13.40
2023-05-14T02:35:38.278Z,13.40
2023-05-14T02:36:41.394Z,13.40
2023-05-14T02:37:44.951Z,13.40
2023-05-14T02:38:47.803Z,13.40
2023-05-14T02:39:53.488Z,13.40
2023-05-14T02:40:58.533Z,13.40
2023-05-14T02:42:02.003Z,13.40
2023-05-14T02:43:04.593Z,13.40
2023-05-14T02:44:08.319Z,13.40
2023-05-14T02:45:11.681Z,13.40
2023-05-14T02:46:16.623Z,13.40
2023-05-14T02:47:19.658Z,13.40
2023-05-14T02:48:23.343Z,13.40
2023-05-14T02:49:26.050Z,13.40
2023-05-14T02:50:30.008Z,13.40
2023-05-14T02:51:34.103Z,13.30
2023-05-14T02:52:36.990Z,13.40
2023-05-14T02:53:40.685Z,13.30
2023-05-14T02:54:44.327Z,13.30
2023-05-14T02:55:48.265Z,13.30
2023-05-14T02:56:51.775Z,13.30
2023-05-14T02:57:54.570Z,13.30
2023-05-14T02:58:58.325Z,13.30
2023-05-14T03:00:01.301Z,13.30
2023-05-14T03:01:05.715Z,13.30
2023-05-14T03:02:09.297Z,13.30
2023-05-14T03:03:13.469Z,13.20
2023-05-14T03:04:16.693Z,13.20
2023-05-14T03:05:21.084Z,13.20
2023-05-14T03:06:23.698Z,13.20
2023-05-14T03:07:27.334Z,13.20
2023-05-14T03:08:29.840Z,13.20
2023-05-14T03:09:34.213Z,13.20
2023-05-14T03:10:37.981Z,13.20
2023-05-14T03:11:42.929Z,13.20
2023-05-14T03:12:45.629Z,13.10
2023-05-14T03:13:49.216Z,13.10
2023-05-14T03:14:51.817Z,13.10
2023-05-14T03:15:56.686Z,13.10
2023-05-14T03:16:59.621Z,13.10
2023-05-14T03:18:03.820Z,13.10
2023-05-14T03:19:06.824Z,13.10
2023-05-14T03:20:12.398Z,13.10
2023-05-14T03:21:15.265Z,13.10
2023-05-14T03:22:20.404Z,13.10
2023-05-14T03:23:23.629Z,13.10
2023-05-14T03:24:29.209Z,13.10
2023-05-14T03:25:31.902Z,13.10
2023-05-14T03:26:35.581Z,13.10
2023-05-14T03:27:39.711Z,13.10
2023-05-14T03:28:43.394Z,13.10
2023-05-14T03:29:46.242Z,13.10
2023-05-14T03:30:50.007Z,13.00
2023-05-14T03:31:54.665Z,13.00
2023-05-14T03:33:00.536Z,13.10
2023-05-14T03:34:03.390Z,13.00
2023-05-14T03:35:08.820Z,13.00
2023-05-14T03:36:12.436Z,13.00
2023-05-14T03:37:15.905Z,13.00
2023-05-14T03:38:19.424Z,13.00
2023-05-14T03:39:22.807Z,13.00
2023-05-14T03:40:26.580Z,13.00
2023-05-14T03:41:29.341Z,13.00
2023-05-14T03:42:33.018Z,13.00
2023-05-14T03:43:36.921Z,13.00
2023-05-14T03:44:40.757Z,13.00
2023-05-14T03:45:44.603Z,13.00
2023-05-14T03:46:48.559Z,13.00
2023-05-14T03:47:51.366Z,13.00
2023-05-14T03:48:55.552Z,13.00
2023-05-14T03:49:59.084Z,13.00
2023-05-14T03:51:02.861Z,13.00
2023-05-14T03:52:06.056Z,12.90
2023-05-14T03:53:11.504Z,12.90
2023-05-14T03:54:14.196Z,12.90
2023-05-14T03:55:17.784Z,12.90
2023-05-14T03:56:20.839Z,12.90
2023-05-14T03:57:25.448Z,12.90
2023-05-14T03:58:28.332Z,12.90
2023-05-14T03:59:33.439Z,12.90
2023-05-14T04:00:36.541Z,12.90
2023-05-14T04:01:40.600Z,12.90
2023-05-14T04:02:43.557Z,12.90
2023-05-14T04:03:47.554Z,12.90
2023-05-14T04:04:50.528Z,12.90
2023-05-14T04:05:56.839Z,12.90
2023-05-14T04:07:02.066Z,12.80
2023-05-14T04:08:06.375Z,12.80
2023-05-14T04:09:10.991Z,12.80
2023-05-14T04:10:15.473Z,12.80
2023-05-14T04:11:18.275Z,12.80
2023-05-14T04:12:21.895Z,12.80
2023-05-14T04:13:24.589Z,12.80
2023-05-14T04:14:28.563Z,12.80
2023-05-14T04:15:32.671Z,12.80
2023-05-14T04:16:36.438Z,12.80
2023-05-14T04:17:39.235Z,12.80
2023-05-14T04:18:42.929Z,12.80
2023-05-14T04:19:45.612Z,12.80
2023-05-14T04:20:49.267Z,12.80
2023-05-14T04:21:51.896Z,12.80
2023-05-14T04:22:55.641Z,12.80
2023-05-14T04:23:58.473Z,12.90
2023-05-14T04:25:02.066Z,12.90
2023-05-14T04:26:06.717Z,12.90
2023-05-14T04:27:10.410Z,12.90
2023-05-14T04:28:13.423Z,12.90
2023-05-14T04:29:17.198Z,12.90
2023-05-14T04:30:20.270Z,12.90
2023-05-14T04:31:28.355Z,12.90
2023-05-14T04:32:34.288Z,13.00
2023-05-14T04:33:40.012Z,13.00
2023-05-14T04:34:42.809Z,13.00
2023-05-14T04:35:47.496Z,13.10
2023-05-14T04:36:51.467Z,13.10
2023-05-14T04:37:55.188Z,13.20
2023-05-14T04:38:57.908Z,13.20
2023-05-14T04:40:01.757Z,13.30
2023-05-14T04:41:05.365Z,13.40
2023-05-14T04:42:09.388Z,13.40
2023-05-14T04:43:11.967Z,13.50
2023-05-14T04:44:15.991Z,13.50
2023-05-14T04:45:19.337Z,13.50
2023-05-14T04:46:24.680Z,13.60
2023-05-14T04:47:27.361Z,13.70
2023-05-14T04:48:31.095Z,13.70
2023-05-14T04:49:33.904Z,13.70
2023-05-14T04:50:37.834Z,13.80
2023-05-14T04:51:40.643Z,13.80
2023-05-14T04:52:44.382Z,13.80
2023-05-14T04:53:47.221Z,13.80
2023-05-14T04:54:51.187Z,13.90
2023-05-14T04:55:54.363Z,13.90
2023-05-14T04:56:58.112Z,13.90
2023-05-14T04:58:00.775Z,13.90
2023-05-14T04:59:07.342Z,13.90
2023-05-14T05:00:11.981Z,13.90
2023-05-14T05:01:16.226Z,13.90
2023-05-14T05:02:20.405Z,13.90
2023-05-14T05:03:24.235Z,14.00
2023-05-14T05:04:27.361Z,13.90
2023-05-14T05:05:30.985Z,14.00
2023-05-14T05:06:33.864Z,14.00
2023-05-14T05:07:39.098Z,14.00
2023-05-14T05:08:41.672Z,14.00
2023-05-14T05:09:45.479Z,14.00
2023-05-14T05:10:48.326Z,14.00
2023-05-14T05:11:52.371Z,14.00
2023-05-14T05:12:55.000Z,14.10
2023-05-14T05:13:58.737Z,14.10
2023-05-14T05:15:01.656Z,14.10
2023-05-14T05:16:06.260Z,14.10
2023-05-14T05:17:09.481Z,14.10
2023-05-14T05:18:14.679Z,14.20
2023-05-14T05:19:17.551Z,14.20
2023-05-14T05:20:25.199Z,14.20
2023-05-14T05:21:28.059Z,14.20
2023-05-14T05:22:32.000Z,14.20
2023-05-14T05:23:34.628Z,14.30
2023-05-14T05:24:38.579Z,14.30
2023-05-14T05:25:41.473Z,14.30
2023-05-14T05:26:45.345Z,14.40
2023-05-14T05:27:48.065Z,14.40
2023-05-14T05:28:52.063Z,14.40
2023-05-14T05:29:54.913Z,14.50
2023-05-14T05:30:58.896Z,14.50
2023-05-14T05:32:04.997Z,14.50
2023-05-14T05:33:09.268Z,14.60
2023-05-14T05:34:13.684Z,14.60
2023-05-14T05:35:17.652Z,14.60
2023-05-14T05:36:20.517Z,14.70
2023-05-14T05:37:24.258Z,14.80
2023-05-14T05:38:27.198Z,14.80
2023-05-14T05:39:34.819Z,14.90
2023-05-14T05:40:37.910Z,14.90
2023-05-14T05:41:41.950Z,15.00
2023-05-14T05:42:44.520Z,15.00
2023-05-14T05:43:48.566Z,15.10
2023-05-14T05:44:51.406Z,15.10
2023-05-14T05:45:55.151Z,15.20
2023-05-14T05:46:57.953Z,15.20
2023-05-14T05:48:01.830Z,15.30
2023-05-14T05:49:04.550Z,15.30
2023-05-14T05:50:12.447Z,15.30
2023-05-14T05:51:15.253Z,15.40
2023-05-14T05:52:19.201Z,15.40
2023-05-14T05:53:21.987Z,15.50
2023-05-14T05:54:27.315Z,15.50
2023-05-14T05:55:30.307Z,15.60
2023-05-14T05:56:34.139Z,15.70
2023-05-14T05:57:36.958Z,15.90
2023-05-14T05:58:42.401Z,16.00
2023-05-14T05:59:45.231Z,16.10
2023-05-14T06:00:49.032Z,16.20
2023-05-14T06:01:51.828Z,16.30
2023-05-14T06:02:56.465Z,16.40
2023-05-14T06:05:03.633Z,16.60
2023-05-14T06:06:10.001Z,16.70
2023-05-14T06:07:13.723Z,16.80
2023-05-14T06:08:16.362Z,16.80
2023-05-14T06:09:20.230Z,16.90
2023-05-14T06:10:23.391Z,16.90
2023-05-14T06:11:27.547Z,16.90
2023-05-14T06:12:30.205Z,16.90
2023-05-14T06:13:34.106Z,16.90
2023-05-14T06:14:36.742Z,16.90
2023-05-14T06:15:43.076Z,16.90
2023-05-14T06:16:46.012Z,16.90
2023-05-14T06:17:49.876Z,16.80
2023-05-14T06:18:53.033Z,16.80
2023-05-14T06:19:59.684Z,16.70
2023-05-14T06:21:02.396Z,16.60
2023-05-14T06:22:07.622Z,16.60
2023-05-14T06:23:12.313Z,16.50
2023-05-14T06:24:16.509Z,16.50
2023-05-14T06:25:19.701Z,16.50
2023-05-14T06:26:23.510Z,16.40
2023-05-14T06:27:26.356Z,16.40
2023-05-14T06:28:30.186Z,16.30
2023-05-14T06:29:32.869Z,16.30
2023-05-14T06:30:36.700Z,16.30
2023-05-14T06:31:39.476Z,16.30
2023-05-14T06:32:43.510Z,16.20
2023-05-14T06:33:46.372Z,16.20
2023-05-14T06:34:50.032Z,16.20
2023-05-14T06:35:52.921Z,16.10
2023-05-14T06:36:57.265Z,16.10
2023-05-14T06:38:01.488Z,16.00
2023-05-14T06:39:05.327Z,16.00
2023-05-14T06:40:09.694Z,15.90
2023-05-14T06:41:13.381Z,15.90
2023-05-14T06:42:16.108Z,15.90
2023-05-14T06:43:19.876Z,15.90
2023-05-14T06:44:25.359Z,15.90
2023-05-14T06:45:30.086Z,15.90
2023-05-14T06:46:36.754Z,15.80
2023-05-14T06:47:42.984Z,15.80
2023-05-14T06:48:45.954Z,15.80
2023-05-14T06:49:51.720Z,15.80
2023-05-14T06:50:54.402Z,15.80
2023-05-14T06:51:58.245Z,15.80
2023-05-14T06:53:05.996Z,15.90
2023-05-14T06:54:09.765Z,15.90
2023-05-14T06:55:15.640Z,15.90
2023-05-14T06:56:19.472Z,15.90
2023-05-14T06:57:22.300Z,16.00
2023-05-14T06:58:26.109Z,16.00
2023-05-14T06:59:28.956Z,16.00
2023-05-14T07:00:32.873Z,16.10
2023-05-14T07:01:35.601Z,16.20
2023-05-14T07:02:39.666Z,16.20
2023-05-14T07:03:45.697Z,16.30
2023-05-14T07:04:51.132Z,16.30
2023-05-14T07:05:55.006Z,16.40
2023-05-14T07:06:58.066Z,16.50
2023-05-14T07:08:02.052Z,16.50
2023-05-14T07:09:06.878Z,16.60
2023-05-14T07:10:11.047Z,16.70
2023-05-14T07:11:14.219Z,16.70
2023-05-14T07:12:18.099Z,16.80
2023-05-14T07:13:21.011Z,16.90
2023-05-14T07:14:24.818Z,17.00
2023-05-14T07:15:27.719Z,17.00
2023-05-14T07:16:38.053Z,17.20
2023-05-14T07:17:40.940Z,17.40
2023-05-14T07:18:46.273Z,17.50
2023-05-14T07:19:49.375Z,17.70
2023-05-14T07:20:53.275Z,17.90
2023-05-14T07:21:56.587Z,18.10
2023-05-14T07:23:00.398Z,18.40
2023-05-14T07:24:03.214Z,18.50
2023-05-14T07:25:09.380Z,18.80
2023-05-14T07:26:12.448Z,19.00
2023-05-14T07:27:17.086Z,19.30
2023-05-14T07:28:23.870Z,19.60
2023-05-14T07:29:30.295Z,19.80
2023-05-14T07:30:34.168Z,20.00
2023-05-14T07:31:37.076Z,20.20
2023-05-14T07:33:44.877Z,20.80
2023-05-14T07:34:49.022Z,21.00
2023-05-14T07:35:52.112Z,21.30
2023-05-14T07:36:55.866Z,21.50
2023-05-14T07:37:58.604Z,21.80
2023-05-14T07:40:08.597Z,22.30
2023-05-14T07:41:12.611Z,22.60
2023-05-14T07:42:31.793Z,22.80
2023-05-14T07:43:41.016Z,23.10
2023-05-14T07:44:46.242Z,23.40
2023-05-14T07:45:49.932Z,23.60
2023-05-14T07:46:55.136Z,23.90
2023-05-14T07:48:01.309Z,24.10
2023-05-14T07:49:04.447Z,24.40
2023-05-14T07:50:10.453Z,24.60
2023-05-14T07:51:13.352Z,24.80
2023-05-14T07:52:23.107Z,25.00
2023-05-14T07:53:28.378Z,25.30
2023-05-14T07:55:36.370Z,25.90
2023-05-14T07:56:40.217Z,26.00
2023-05-14T07:57:44.314Z,26.20
2023-05-14T07:58:50.936Z,26.40
2023-05-14T07:59:54.036Z,26.50
2023-05-14T08:00:58.350Z,26.70
2023-05-14T08:02:01.315Z,26.90
2023-05-14T08:03:05.559Z,27.10
2023-05-14T08:04:08.603Z,27.20
2023-05-14T08:05:12.729Z,27.40
2023-05-14T08:06:15.619Z,27.50
2023-05-14T08:07:19.364Z,27.60
2023-05-14T08:08:22.685Z,27.60
2023-05-14T08:09:26.432Z,27.60
2023-05-14T08:10:29.887Z,27.50
2023-05-14T08:11:35.140Z,27.40
2023-05-14T08:12:38.028Z,27.30
2023-05-14T08:13:41.951Z,27.10
2023-05-14T08:14:44.897Z,27.00
2023-05-14T08:15:48.798Z,26.80
2023-05-14T08:16:51.644Z,26.70
2023-05-14T08:17:55.839Z,26.60
2023-05-14T08:18:58.816Z,26.60
2023-05-14T08:20:02.866Z,26.60
2023-05-14T08:21:06.358Z,26.70
2023-05-14T08:22:10.031Z,26.80
2023-05-14T08:23:13.057Z,26.90
2023-05-14T08:24:17.494Z,27.00
2023-05-14T08:25:20.193Z,27.10
2023-05-14T08:26:24.041Z,27.30
2023-05-14T08:27:28.641Z,27.60
2023-05-14T08:28:32.553Z,27.80
2023-05-14T08:29:35.534Z,28.10
2023-05-14T08:30:39.361Z,28.30
2023-05-14T08:31:42.472Z,28.60
2023-05-14T08:32:46.327Z,28.90
2023-05-14T08:33:49.239Z,29.20
2023-05-14T08:35:58.252Z,29.60
2023-05-14T08:37:01.986Z,29.70
2023-05-14T08:38:06.687Z,29.80
2023-05-14T08:39:10.589Z,29.80
2023-05-14T08:40:13.954Z,29.70
2023-05-14T08:41:18.003Z,29.60
2023-05-14T08:42:24.598Z,29.60
2023-05-14T08:43:40.438Z,29.60
2023-05-14T08:44:50.303Z,29.60
2023-05-14T08:45:59.451Z,29.60
2023-05-14T08:47:02.607Z,29.70
2023-05-14T08:48:13.164Z,29.90
2023-05-14T08:49:37.861Z,30.00
2023-05-14T08:50:41.770Z,30.20
2023-05-14T08:51:48.550Z,30.50
2023-05-14T08:52:52.880Z,30.70
2023-05-14T08:53:59.260Z,30.90
2023-05-14T08:56:10.258Z,31.20
2023-05-14T08:57:15.384Z,31.30
2023-05-14T08:58:18.345Z,31.40
2023-05-14T08:59:23.775Z,31.50
2023-05-14T09:00:28.142Z,31.50
2023-05-14T09:01:31.581Z,31.50
2023-05-14T09:03:39.824Z,31.60
2023-05-14T09:04:44.546Z,31.70
2023-05-14T09:05:49.335Z,31.80
2023-05-14T09:06:54.151Z,31.80
2023-05-14T09:07:58.096Z,31.90
2023-05-14T09:09:01.162Z,32.00
2023-05-14T09:10:05.929Z,32.10
2023-05-14T09:11:08.932Z,32.20
2023-05-14T09:12:12.595Z,32.30
2023-05-14T09:13:15.728Z,32.30
2023-05-14T09:14:20.075Z,32.40
2023-05-14T09:15:27.719Z,32.40
2023-05-14T09:16:31.626Z,32.40
2023-05-14T09:17:35.001Z,32.50
2023-05-14T09:18:40.248Z,32.60
2023-05-14T09:19:44.093Z,32.80
2023-05-14T09:20:49.218Z,32.90
2023-05-14T09:21:56.074Z,33.00
2023-05-14T09:23:00.414Z,33.20
2023-05-14T09:24:03.967Z,33.40
2023-05-14T09:25:09.921Z,33.40
2023-05-14T09:26:16.971Z,33.50
2023-05-14T09:27:21.522Z,33.60
2023-05-14T09:28:28.150Z,33.70
2023-05-14T09:29:35.130Z,33.80
2023-05-14T09:30:39.325Z,33.90
2023-05-14T09:31:43.362Z,34.00
2023-05-14T09:32:48.872Z,34.10
2023-05-14T09:33:52.355Z,34.30
2023-05-14T09:34:56.392Z,34.40
2023-05-14T09:36:00.426Z,34.50
2023-05-14T09:37:05.943Z,34.60
2023-05-14T09:38:08.733Z,34.70
2023-05-14T09:40:17.522Z,35.00
2023-05-14T09:41:23.064Z,35.00
2023-05-14T09:42:26.648Z,35.10
2023-05-14T09:43:30.598Z,35.20
2023-05-14T09:44:33.584Z,35.20
2023-05-14T09:45:37.654Z,35.20
2023-05-14T09:46:41.896Z,35.30
2023-05-14T09:47:46.212Z,35.30
2023-05-14T09:48:49.325Z,35.30
2023-05-14T09:49:53.667Z,35.30
2023-05-14T09:50:57.517Z,35.30
2023-05-14T09:52:01.358Z,35.40
2023-05-14T09:53:05.344Z,35.40
2023-05-14T09:54:12.197Z,35.40
2023-05-14T09:55:17.360Z,35.40
2023-05-14T09:56:20.181Z,35.40
2023-05-14T09:57:24.341Z,35.50
2023-05-14T09:58:27.383Z,35.50
2023-05-14T09:59:31.179Z,35.50
2023-05-14T10:00:34.594Z,35.40
2023-05-14T10:01:39.119Z,35.40
2023-05-14T10:02:45.481Z,35.40
2023-05-14T10:03:50.022Z,35.40
2023-05-14T10:04:58.951Z,35.50
2023-05-14T10:06:07.713Z,35.50
2023-05-14T10:07:10.485Z,35.50
2023-05-14T10:08:21.709Z,35.40
2023-05-14T10:09:29.801Z,35.40
2023-05-14T10:10:35.164Z,35.40
2023-05-14T10:11:42.491Z,35.40
2023-05-14T10:13:04.318Z,35.40
2023-05-14T10:14:12.534Z,35.40
2023-05-14T10:15:22.060Z,35.40
2023-05-14T10:16:32.139Z,35.30
2023-05-14T10:17:42.205Z,35.30
2023-05-14T10:18:53.535Z,35.20
2023-05-14T10:20:00.192Z,35.10
2023-05-14T10:21:07.285Z,35.00
2023-05-14T10:22:13.050Z,35.00
2023-05-14T10:23:17.314Z,34.80
2023-05-14T10:24:20.693Z,34.80
2023-05-14T10:25:25.464Z,34.70
2023-05-14T10:26:28.877Z,34.60
2023-05-14T10:27:33.512Z,34.50
2023-05-14T10:28:36.700Z,34.50
2023-05-14T10:29:40.435Z,34.50
2023-05-14T10:31:54.852Z,34.40
2023-05-14T10:33:08.804Z,34.30
2023-05-14T10:34:34.726Z,34.30
2023-05-14T10:36:02.000Z,34.40
2023-05-14T10:37:07.018Z,34.40
2023-05-14T10:38:10.867Z,34.40
2023-05-14T10:39:13.997Z,34.40
2023-05-14T10:40:19.307Z,34.40
2023-05-14T10:41:22.331Z,34.40
2023-05-14T10:42:29.047Z,34.40
2023-05-14T10:43:36.681Z,34.40
2023-05-14T10:44:51.784Z,34.40
2023-05-14T10:45:55.495Z,34.40
2023-05-14T10:46:59.598Z,34.40
2023-05-14T10:48:02.882Z,34.40
2023-05-14T10:49:07.121Z,34.40
2023-05-14T10:50:14.454Z,34.40
2023-05-14T10:51:20.953Z,34.30
2023-05-14T10:52:25.381Z,34.30
2023-05-14T10:53:37.859Z,34.20
2023-05-14T10:54:40.697Z,34.20
2023-05-14T10:55:45.074Z,34.10
2023-05-14T10:56:47.636Z,34.00
2023-05-14T10:57:51.735Z,33.90
2023-05-14T11:00:07.350Z,33.80
2023-05-14T11:01:12.351Z,33.80
2023-05-14T11:02:28.012Z,33.70
2023-05-14T11:04:35.922Z,33.60
2023-05-14T11:06:48.025Z,33.50
2023-05-14T11:07:51.995Z,33.40
2023-05-14T11:08:56.644Z,33.40
2023-05-14T11:10:03.495Z,33.40
2023-05-14T11:11:07.677Z,33.40
2023-05-14T11:12:10.813Z,33.40
2023-05-14T11:13:16.379Z,33.40
2023-05-14T11:14:21.235Z,33.30
2023-05-14T11:15:28.100Z,33.20
2023-05-14T11:16:32.156Z,33.10
2023-05-14T11:17:38.134Z,33.00
2023-05-14T11:18:42.117Z,32.90
2023-05-14T11:19:46.304Z,32.80
2023-05-14T11:20:51.199Z,32.70
2023-05-14T11:21:54.987Z,32.70
2023-05-14T11:22:58.935Z,32.70
2023-05-14T11:24:03.721Z,32.60
2023-05-14T11:25:10.152Z,32.60
2023-05-14T11:26:13.889Z,32.60
2023-05-14T11:27:19.343Z,32.60
2023-05-14T11:28:25.733Z,32.60
2023-05-14T11:29:28.687Z,32.50
2023-05-14T11:30:33.549Z,32.50
2023-05-14T11:31:36.869Z,32.40
2023-05-14T11:32:40.953Z,32.40
2023-05-14T11:33:44.393Z,32.40
2023-05-14T11:34:48.768Z,32.40
2023-05-14T11:35:53.214Z,32.40
2023-05-14T11:36:57.341Z,32.50
2023-05-14T11:38:01.130Z,32.50
2023-05-14T11:39:08.079Z,32.60
2023-05-14T11:40:17.461Z,32.60
2023-05-14T11:41:23.049Z,32.60
2023-05-14T11:42:27.343Z,32.60
2023-05-14T11:43:30.940Z,32.70
2023-05-14T11:44:34.848Z,32.70
2023-05-14T11:45:38.704Z,32.70
2023-05-14T11:46:41.690Z,32.70
2023-05-14T11:47:46.140Z,32.80
2023-05-14T11:48:49.193Z,32.80
2023-05-14T11:49:54.100Z,32.90
2023-05-14T11:51:01.490Z,33.00
2023-05-14T11:52:07.922Z,33.00
2023-05-14T11:53:11.084Z,33.00
2023-05-14T11:54:16.757Z,33.10
2023-05-14T11:55:21.056Z,33.10
2023-05-14T11:56:24.951Z,33.10
2023-05-14T11:57:29.034Z,33.10
2023-05-14T11:58:36.307Z,33.10
2023-05-14T11:59:41.278Z,33.10
2023-05-14T12:00:50.396Z,33.10
2023-05-14T12:01:54.524Z,33.10
2023-05-14T12:02:58.434Z,33.00
2023-05-14T12:04:03.947Z,33.00
2023-05-14T12:05:11.740Z,33.00
2023-05-14T12:06:15.962Z,33.00
2023-05-14T12:07:20.282Z,33.00
2023-05-14T12:08:30.826Z,33.00
2023-05-14T12:09:40.088Z,33.00
2023-05-14T12:10:43.163Z,33.10
2023-05-14T12:11:47.721Z,33.10
2023-05-14T12:12:50.571Z,33.10
2023-05-14T12:13:55.068Z,33.10
2023-05-14T12:15:01.932Z,33.10
2023-05-14T12:16:05.662Z,33.00
2023-05-14T12:17:16.607Z,33.00
2023-05-14T12:18:24.749Z,32.90
2023-05-14T12:19:31.419Z,32.90
2023-05-14T12:20:34.352Z,32.90
2023-05-14T12:22:44.523Z,32.80
2023-05-14T12:23:47.202Z,32.80
2023-05-14T12:24:55.476Z,32.70
2023-05-14T12:26:03.554Z,32.70
2023-05-14T12:27:09.106Z,32.60
2023-05-14T12:28:15.292Z,32.60
2023-05-14T12:29:19.000Z,32.50
2023-05-14T12:30:22.299Z,32.50
2023-05-14T12:31:33.343Z,32.50
2023-05-14T12:32:39.414Z,32.40
2023-05-14T12:33:42.183Z,32.40
2023-05-14T12:34:45.868Z,32.40
2023-05-14T12:35:49.590Z,32.40
2023-05-14T12:36:54.861Z,32.40
2023-05-14T12:37:57.649Z,32.40
2023-05-14T12:39:06.418Z,32.40
2023-05-14T12:40:10.304Z,32.40
2023-05-14T12:41:14.209Z,32.40
2023-05-14T12:42:18.029Z,32.40
2023-05-14T12:43:21.094Z,32.40
2023-05-14T12:44:24.773Z,32.40
2023-05-14T12:45:27.668Z,32.40
2023-05-14T12:46:31.872Z,32.40
2023-05-14T12:47:34.996Z,32.40
2023-05-14T12:48:38.933Z,32.40
2023-05-14T12:49:43.179Z,32.40
2023-05-14T12:50:46.659Z,32.40
2023-05-14T12:51:52.788Z,32.40
2023-05-14T12:53:05.584Z,32.40
2023-05-14T12:54:11.124Z,32.40
2023-05-14T12:55:14.147Z,32.40
2023-05-14T12:56:17.947Z,32.30
2023-05-14T12:57:21.022Z,32.30
2023-05-14T12:58:24.777Z,32.20
2023-05-14T12:59:27.644Z,32.20
2023-05-14T13:00:31.565Z,32.20
2023-05-14T13:01:34.566Z,32.10
2023-05-14T13:02:42.822Z,32.10
2023-05-14T13:03:47.528Z,32.10
2023-05-14T13:04:50.442Z,32.00
2023-05-14T13:05:55.007Z,32.00
2023-05-14T13:06:57.934Z,31.90
2023-05-14T13:08:04.188Z,31.80
2023-05-14T13:09:08.825Z,31.70
2023-05-14T13:10:13.477Z,31.60
2023-05-14T13:11:17.487Z,31.50
2023-05-14T13:12:20.327Z,31.40
2023-05-14T13:13:24.472Z,31.30
2023-05-14T13:14:28.369Z,31.30
2023-05-14T13:15:31.715Z,31.20
2023-05-14T13:17:38.722Z,31.00
2023-05-14T13:18:42.703Z,31.00
2023-05-14T13:19:45.375Z,30.90
2023-05-14T13:20:49.567Z,30.80
2023-05-14T13:21:52.327Z,30.80
2023-05-14T13:22:58.814Z,30.80
2023-05-14T13:24:01.533Z,30.70
2023-05-14T13:25:10.067Z,30.70
2023-05-14T13:26:12.913Z,30.70
2023-05-14T13:27:16.996Z,30.70
2023-05-14T13:28:21.534Z,30.70
2023-05-14T13:29:24.661Z,30.60
2023-05-14T13:30:28.805Z,30.60
2023-05-14T13:31:33.289Z,30.60
2023-05-14T13:32:36.086Z,30.60
2023-05-14T13:33:42.624Z,30.60
2023-05-14T13:34:45.628Z,30.60
2023-05-14T13:35:49.454Z,30.60
2023-05-14T13:36:52.557Z,30.60
2023-05-14T13:37:56.492Z,30.60
2023-05-14T13:39:05.444Z,30.50
2023-05-14T13:40:11.898Z,30.50
2023-05-14T13:41:16.208Z,30.50
2023-05-14T13:42:19.220Z,30.40
2023-05-14T13:43:22.942Z,30.40
2023-05-14T13:44:27.128Z,30.40
2023-05-14T13:45:29.888Z,30.40
2023-05-14T13:46:33.866Z,30.30
2023-05-14T13:47:36.712Z,30.40
2023-05-14T13:48:40.972Z,30.40
2023-05-14T13:49:43.811Z,30.40
2023-05-14T13:50:49.437Z,30.40
2023-05-14T13:51:53.299Z,30.40
2023-05-14T13:52:56.309Z,30.40
2023-05-14T13:54:00.341Z,30.40
2023-05-14T13:55:03.969Z,30.40
2023-05-14T13:56:09.505Z,30.30
2023-05-14T13:57:12.306Z,30.30
2023-05-14T13:58:18.142Z,30.30
2023-05-14T13:59:21.163Z,30.20
2023-05-14T14:00:25.177Z,30.20
2023-05-14T14:01:30.909Z,30.10
2023-05-14T14:02:34.657Z,30.10
2023-05-14T14:03:37.400Z,30.00
2023-05-14T14:04:41.454Z,30.00
2023-05-14T14:05:44.509Z,30.00
2023-05-14T14:06:48.307Z,30.00
2023-05-14T14:07:52.911Z,29.90
2023-05-14T14:08:58.541Z,29.90
2023-05-14T14:10:01.732Z,29.80